KOWA

Details ICAO KOWA
Name OWATONNA DEGNER RGNL
Region United States
Timezone America/Chicago (UTC-6.0)
Plans Departing 2
Arriving 3
Stats Elevation 1,146 ft / 349 m (AMSL)
Location 44.123400° -93.260618°
Runways 1
Magnetic Variation 0.297° E
Sunrise 2017-12-14 13:42:09 UTC / 2017-12-14 07:42:09 Local
Sunset 2017-12-14 22:36:20 UTC / 2017-12-14 16:36:20 Local
Advertisement - Login to hide

Runways

ID Width Length Bearing (true) Bearing (mag) Surface Threshold Offset Overrun Length
12 100 ft / 30 m 5,492 ft / 1,674 m 124.08° 123.78° Concrete 0 ft / 0 m 0 ft / 0 m
30 100 ft / 30 m 5,492 ft / 1,674 m 304.09° 303.79° Concrete 1,000 ft / 305 m 0 ft / 0 m

Approach Navaids

Runway Type Ident Frequency Range Bearing (true) Bearing (mag) Slope Elevation
30 Localiser IOWA 109.55 MHz 18 nm / 33 km 304.07° 303.78° - 1,104 ft / 336 m (AMSL)
30 Glidescope IOWA 109.55 MHz 10 nm / 19 km 304.08° 303.79° 3.00° 1,132 ft / 345 m (AMSL)

Map

Weather


0- 5 10 15 20 25 30 35+ Temperature / ° C

Clouds and Precipitation
Forecast for 2017-12-14 18:00 UTC. Updated 16 minutes ago

Ground ~20,000 ft ~40,000 ft Winds

METAR

KOWA 141733Z AUTO 24004KT 7SM OVC024 M06/M08 A3003 RMK AO2

TAF

Not found

Frequencies

Recorded 128.32 MHz AWOS 3
Approach 119.80 MHz ROCHESTER APP/DEP
Unicom 122.70 MHz CTAF/UNICOM
Warning: Do not use this data for real-world aviation or navigation. No guarantee of current accuracy is given.